Mantachie, Mississippi
Current Conditions -  °F | °C
As of 9:53 PM on Tuesday 27 Jan 2015 (Local Time) from KTUP Reporting Station
Clear Clear  
Wind Chill: 33°   Ceiling: Unl
Heat Index: 39°   Visibility: 10mi
Dew Point: 31°   Wind: 9mph
Humidity: 73%   Direction: 40°NE
Pressure: 30.2"   Gusts: NA
Location:  34.32°N, 88.49°W
Report Text: KTUP 280353Z 04008KT 10SM CLR 04/M01 A3020 RMK AO2 SLP228 T00391006
Loading
Personal Weather Stations






























Interactive Weather Map New forecast layout! Learn more

10-Day Weather Forecast

Advertisements
Track Severe Weather on mobile